createdAt,value
2019-05-10T00:00:20.825Z,80.00
2019-05-10T00:03:09.401Z,80.30
2019-05-10T00:05:58.554Z,80.50
2019-05-10T00:08:46.769Z,80.80
2019-05-10T00:11:38.427Z,80.80
2019-05-10T00:14:18.809Z,81.10
2019-05-10T00:16:50.650Z,82.00
2019-05-10T00:19:21.359Z,81.20
2019-05-10T00:21:52.275Z,81.20
2019-05-10T00:24:23.214Z,81.30
2019-05-10T00:26:53.914Z,81.40
2019-05-10T00:29:24.701Z,81.50
2019-05-10T00:31:55.539Z,81.50
2019-05-10T00:34:27.056Z,81.50
2019-05-10T00:36:59.021Z,81.40
2019-05-10T00:39:29.630Z,81.20
2019-05-10T00:42:00.262Z,81.20
2019-05-10T00:44:30.909Z,81.20
2019-05-10T00:47:01.545Z,80.70
2019-05-10T00:49:32.059Z,80.70
2019-05-10T00:52:03.155Z,81.00
2019-05-10T00:54:34.739Z,81.50
2019-05-10T00:57:06.199Z,80.70
2019-05-10T00:59:37.121Z,80.60
2019-05-10T01:02:07.686Z,80.60
2019-05-10T01:04:39.340Z,80.60
2019-05-10T01:07:10.364Z,80.70
2019-05-10T01:09:41.015Z,80.40
2019-05-10T01:12:11.906Z,80.30
2019-05-10T01:14:42.605Z,80.30
2019-05-10T01:17:13.246Z,80.40
2019-05-10T01:19:43.831Z,80.50
2019-05-10T01:22:14.855Z,81.30
2019-05-10T01:24:45.895Z,81.00
2019-05-10T01:27:16.636Z,81.40
2019-05-10T01:29:47.186Z,81.80
2019-05-10T01:32:18.025Z,82.60
2019-05-10T01:34:48.547Z,82.50
2019-05-10T01:37:19.315Z,82.90
2019-05-10T01:39:49.875Z,83.40
2019-05-10T01:42:20.399Z,83.30
2019-05-10T01:44:50.879Z,83.50
2019-05-10T01:47:21.802Z,83.90
2019-05-10T01:49:52.387Z,84.10
2019-05-10T01:52:23.208Z,84.20
2019-05-10T01:54:54.010Z,84.50
2019-05-10T01:57:24.525Z,84.80
2019-05-10T01:59:55.023Z,84.70
2019-05-10T02:02:25.723Z,84.50
2019-05-10T02:04:56.284Z,84.30
2019-05-10T02:07:26.861Z,84.60
2019-05-10T02:09:57.521Z,84.70
2019-05-10T02:12:28.146Z,84.90
2019-05-10T02:14:58.913Z,85.50
2019-05-10T02:17:29.678Z,85.10
2019-05-10T02:20:00.654Z,85.20
2019-05-10T02:22:31.218Z,85.10
2019-05-10T02:25:01.891Z,85.10
2019-05-10T02:27:33.622Z,85.30
2019-05-10T02:30:05.200Z,85.50
2019-05-10T02:32:36.382Z,85.60
2019-05-10T02:35:08.250Z,85.80
2019-05-10T02:37:38.943Z,86.20
2019-05-10T02:40:10.032Z,86.20
2019-05-10T02:42:40.599Z,86.60
2019-05-10T02:45:11.630Z,86.60
2019-05-10T02:47:42.240Z,86.10
2019-05-10T02:50:13.094Z,86.40
2019-05-10T02:52:43.862Z,86.20
2019-05-10T02:55:14.855Z,86.30
2019-05-10T02:57:46.172Z,87.10
2019-05-10T03:00:17.348Z,86.40
2019-05-10T03:02:49.079Z,86.90
2019-05-10T03:05:19.751Z,87.00
2019-05-10T03:07:53.374Z,87.10
2019-05-10T03:10:23.952Z,86.70
2019-05-10T03:12:57.279Z,86.40
2019-05-10T03:15:31.018Z,86.30
2019-05-10T03:18:04.071Z,86.20
2019-05-10T03:20:38.081Z,86.50
2019-05-10T03:23:10.866Z,86.70
2019-05-10T03:25:41.440Z,87.00
2019-05-10T03:28:12.074Z,87.40
2019-05-10T03:30:43.076Z,87.80
2019-05-10T03:33:13.685Z,88.00
2019-05-10T03:35:44.716Z,88.10
2019-05-10T03:38:15.607Z,88.20
2019-05-10T03:40:46.369Z,88.40
2019-05-10T03:43:17.084Z,88.20
2019-05-10T03:45:47.662Z,87.90
2019-05-10T03:48:18.178Z,87.80
2019-05-10T03:50:49.139Z,87.30
2019-05-10T03:53:20.180Z,87.80
2019-05-10T03:55:50.760Z,87.20
2019-05-10T03:58:21.328Z,87.40
2019-05-10T04:00:52.034Z,87.30
2019-05-10T04:03:22.642Z,87.30
2019-05-10T04:05:53.407Z,86.00
2019-05-10T04:08:25.151Z,87.40
2019-05-10T04:10:55.649Z,88.20
2019-05-10T04:13:26.145Z,89.20
2019-05-10T04:15:56.818Z,89.90
2019-05-10T04:18:27.315Z,90.00
2019-05-10T04:20:58.409Z,90.10
2019-05-10T04:23:28.983Z,90.20
2019-05-10T04:25:59.536Z,89.70
2019-05-10T04:28:30.042Z,89.70
2019-05-10T04:31:00.665Z,89.80
2019-05-10T04:33:32.508Z,90.00
2019-05-10T04:36:03.057Z,90.00
2019-05-10T04:38:34.639Z,89.70
2019-05-10T04:41:05.286Z,89.60
2019-05-10T04:43:36.376Z,90.30
2019-05-10T04:46:07.117Z,90.00
2019-05-10T04:48:37.752Z,89.80
2019-05-10T04:51:08.418Z,90.00
2019-05-10T04:53:38.939Z,90.10
2019-05-10T04:56:09.545Z,90.50
2019-05-10T04:58:40.171Z,90.00
2019-05-10T05:01:10.666Z,90.00
2019-05-10T05:03:41.752Z,89.40
2019-05-10T05:06:12.426Z,89.40
2019-05-10T05:08:42.947Z,89.60
2019-05-10T05:11:13.717Z,89.10
2019-05-10T05:13:44.593Z,89.20
2019-05-10T05:16:15.165Z,88.60
2019-05-10T05:18:46.163Z,88.50
2019-05-10T05:21:16.974Z,87.90
2019-05-10T05:23:47.486Z,87.90
2019-05-10T05:26:18.162Z,87.90
2019-05-10T05:28:49.750Z,87.30
2019-05-10T05:31:20.658Z,88.00
2019-05-10T05:33:51.338Z,86.30
2019-05-10T05:36:22.203Z,85.90
2019-05-10T05:38:53.078Z,85.70
2019-05-10T05:41:24.010Z,85.60
2019-05-10T05:43:54.541Z,85.40
2019-05-10T05:46:25.061Z,85.00
2019-05-10T05:48:55.623Z,84.80
2019-05-10T05:51:26.213Z,83.50
2019-05-10T05:53:57.316Z,83.20
2019-05-10T05:56:27.980Z,83.40
2019-05-10T05:58:58.866Z,82.50
2019-05-10T06:01:29.800Z,82.40
2019-05-10T06:04:06.555Z,82.60
2019-05-10T06:06:33.802Z,82.40
2019-05-10T06:09:06.942Z,83.30
2019-05-10T06:11:37.885Z,83.80
2019-05-10T06:14:10.981Z,84.90
2019-05-10T06:16:45.143Z,85.60
2019-05-10T06:19:13.515Z,84.20
2019-05-10T06:21:44.187Z,83.80
2019-05-10T06:24:15.862Z,83.90
2019-05-10T06:26:46.717Z,83.50
2019-05-10T06:29:19.883Z,84.10
2019-05-10T06:31:50.750Z,84.40
2019-05-10T06:34:21.233Z,86.00
2019-05-10T06:36:52.203Z,85.30
2019-05-10T06:39:22.932Z,85.80
2019-05-10T06:41:56.170Z,84.80
2019-05-10T06:44:31.371Z,85.60
2019-05-10T06:47:02.061Z,85.80
2019-05-10T06:49:30.309Z,86.40
2019-05-10T06:52:00.970Z,85.60
2019-05-10T06:54:31.605Z,86.00
2019-05-10T06:57:02.158Z,86.90
2019-05-10T06:59:32.779Z,85.50
2019-05-10T07:02:04.205Z,85.60
2019-05-10T07:04:40.364Z,85.80
2019-05-10T07:07:10.323Z,84.30
2019-05-10T07:10:01.285Z,82.90
2019-05-10T07:12:15.156Z,83.10
2019-05-10T07:14:46.075Z,83.70
2019-05-10T07:17:16.327Z,83.80
2019-05-10T07:19:53.852Z,82.00
2019-05-10T07:22:21.639Z,81.00
2019-05-10T07:24:51.662Z,82.10
2019-05-10T07:27:23.888Z,81.20
2019-05-10T07:29:54.382Z,81.30
2019-05-10T07:32:24.911Z,79.40
2019-05-10T07:35:00.459Z,81.40
2019-05-10T07:37:29.201Z,84.10
2019-05-10T07:40:03.248Z,85.40
2019-05-10T07:42:32.202Z,87.70
2019-05-10T07:45:02.771Z,88.50
2019-05-10T07:47:33.354Z,89.70
2019-05-10T07:50:09.800Z,90.30
2019-05-10T07:52:43.511Z,90.60
2019-05-10T07:55:11.094Z,90.80
2019-05-10T07:57:41.717Z,91.40
2019-05-10T08:00:13.362Z,92.00
2019-05-10T08:02:44.328Z,92.40
2019-05-10T08:05:18.436Z,92.80
2019-05-10T08:07:49.597Z,93.40
2019-05-10T08:10:21.545Z,93.30
2019-05-10T08:12:53.488Z,92.90
2019-05-10T08:15:29.332Z,92.70
2019-05-10T08:17:58.566Z,92.80
2019-05-10T08:20:43.741Z,93.10
2019-05-10T08:23:02.857Z,92.90
2019-05-10T08:25:36.367Z,93.60
2019-05-10T08:28:05.866Z,93.40
2019-05-10T08:30:51.186Z,93.10
2019-05-10T08:33:14.797Z,94.30
2019-05-10T08:35:46.441Z,92.80
2019-05-10T08:38:17.550Z,91.50
2019-05-10T08:40:48.130Z,93.10
2019-05-10T08:43:18.757Z,92.00
2019-05-10T08:45:51.935Z,91.50
2019-05-10T08:48:23.354Z,90.00
2019-05-10T08:50:57.536Z,90.50
2019-05-10T08:53:26.658Z,88.20
2019-05-10T08:55:58.845Z,89.70
2019-05-10T09:01:26.703Z,83.00
2019-05-10T09:03:55.166Z,85.30
2019-05-10T09:06:23.291Z,83.90
2019-05-10T09:09:01.787Z,85.80
2019-05-10T09:11:26.457Z,83.00
2019-05-10T09:13:57.913Z,84.00
2019-05-10T09:16:29.086Z,85.20
2019-05-10T09:19:02.538Z,84.00
2019-05-10T09:21:33.587Z,83.50
2019-05-10T09:24:06.521Z,83.10
2019-05-10T09:26:36.500Z,80.30
2019-05-10T09:29:07.138Z,80.60
2019-05-10T09:31:39.398Z,77.90
2019-05-10T09:34:12.138Z,78.20
2019-05-10T09:36:44.849Z,78.90
2019-05-10T09:39:21.465Z,77.40
2019-05-10T09:41:46.791Z,77.10
2019-05-10T09:44:17.410Z,77.50
2019-05-10T09:46:48.336Z,78.30
2019-05-10T09:49:18.906Z,78.70
2019-05-10T09:51:49.578Z,80.50
2019-05-10T09:54:23.289Z,79.80
2019-05-10T09:56:52.501Z,79.70
2019-05-10T09:59:23.207Z,79.20
2019-05-10T10:01:53.837Z,80.50
2019-05-10T10:04:24.719Z,80.90
2019-05-10T10:06:55.205Z,80.50
2019-05-10T10:09:33.738Z,78.40
2019-05-10T10:12:02.864Z,77.20
2019-05-10T10:14:37.758Z,75.70
2019-05-10T10:17:03.549Z,76.70
2019-05-10T10:19:37.593Z,76.60
2019-05-10T10:22:11.141Z,78.30
2019-05-10T10:24:41.205Z,79.20
2019-05-10T10:27:12.283Z,78.70
2019-05-10T10:29:42.797Z,79.20
2019-05-10T10:32:13.318Z,79.60
2019-05-10T10:34:44.367Z,79.60
2019-05-10T10:37:20.354Z,82.60
2019-05-10T10:39:47.795Z,83.40
2019-05-10T10:42:19.774Z,85.00
2019-05-10T10:44:50.813Z,84.80
2019-05-10T10:47:22.882Z,84.00
2019-05-10T10:49:54.345Z,85.80
2019-05-10T10:52:24.946Z,86.50
2019-05-10T10:54:57.685Z,85.50
2019-05-10T10:57:28.004Z,84.80
2019-05-10T10:59:58.630Z,81.60
2019-05-10T11:02:33.718Z,81.70
2019-05-10T11:05:01.394Z,81.80
2019-05-10T11:07:33.800Z,83.00
2019-05-10T11:10:15.315Z,83.20
2019-05-10T11:12:41.021Z,82.50
2019-05-10T11:15:11.577Z,84.00
2019-05-10T11:17:42.282Z,83.70
2019-05-10T11:20:12.924Z,84.20
2019-05-10T11:22:51.682Z,84.80
2019-05-10T11:25:15.799Z,85.50
2019-05-10T11:27:47.583Z,81.70
2019-05-10T11:30:21.352Z,78.40
2019-05-10T11:32:51.572Z,77.70
2019-05-10T11:35:30.292Z,77.70
2019-05-10T11:37:55.566Z,77.50
2019-05-10T11:40:30.835Z,77.00
2019-05-10T11:42:58.654Z,76.80
2019-05-10T11:45:32.225Z,78.80
2019-05-10T11:48:02.315Z,78.20
2019-05-10T11:50:35.547Z,80.80
2019-05-10T11:53:11.884Z,77.50
2019-05-10T11:55:41.170Z,75.90
2019-05-10T11:58:13.245Z,77.10
2019-05-10T12:00:43.407Z,76.30
2019-05-10T12:03:18.485Z,77.00
2019-05-10T12:05:53.100Z,74.80
2019-05-10T12:08:33.646Z,75.40
2019-05-10T12:11:16.099Z,74.10
2019-05-10T12:13:36.627Z,75.00
2019-05-10T12:16:07.253Z,74.30
2019-05-10T12:18:46.397Z,71.40
2019-05-10T12:21:11.297Z,69.90
2019-05-10T12:23:50.274Z,69.30
2019-05-10T12:27:12.617Z,69.80
2019-05-10T12:28:47.569Z,69.50
2019-05-10T12:31:18.129Z,67.90
2019-05-10T12:33:50.641Z,67.60
2019-05-10T12:36:27.135Z,67.70
2019-05-10T12:38:56.260Z,65.90
2019-05-10T12:41:26.926Z,64.10
2019-05-10T12:44:04.200Z,64.40
2019-05-10T12:46:30.702Z,65.70
2019-05-10T12:49:02.069Z,67.30
2019-05-10T12:51:35.021Z,66.10
2019-05-10T12:54:05.609Z,65.50
2019-05-10T12:56:43.769Z,66.80
2019-05-10T12:59:08.323Z,68.70
2019-05-10T13:01:39.390Z,69.50
2019-05-10T13:04:14.721Z,68.20
2019-05-10T13:06:42.282Z,66.30
2019-05-10T13:09:12.935Z,66.30
2019-05-10T13:11:43.541Z,68.20
2019-05-10T13:14:14.237Z,67.00
2019-05-10T13:16:58.082Z,69.00
2019-05-10T13:19:28.733Z,64.70
2019-05-10T13:22:00.801Z,65.30
2019-05-10T13:24:32.557Z,66.00
2019-05-10T13:27:03.646Z,64.20
2019-05-10T13:29:34.407Z,63.70
2019-05-10T13:32:05.426Z,61.00
2019-05-10T13:34:36.002Z,58.60
2019-05-10T13:37:06.867Z,60.50
2019-05-10T13:39:37.531Z,56.90
2019-05-10T13:42:09.755Z,56.20
2019-05-10T13:44:42.848Z,56.00
2019-05-10T13:47:12.827Z,55.40
2019-05-10T13:49:43.423Z,55.80
2019-05-10T13:52:13.913Z,56.00
2019-05-10T13:54:44.535Z,54.50
2019-05-10T13:57:15.238Z,55.60
2019-05-10T13:59:48.761Z,54.10
2019-05-10T14:02:22.837Z,54.10
2019-05-10T14:04:50.510Z,55.80
2019-05-10T14:07:21.025Z,55.50
2019-05-10T14:09:51.732Z,54.10
2019-05-10T14:12:25.505Z,54.20
2019-05-10T14:14:55.577Z,53.80
2019-05-10T14:17:26.750Z,54.40
2019-05-10T14:19:57.311Z,56.60
2019-05-10T14:22:27.817Z,56.40
2019-05-10T14:24:59.131Z,55.60
2019-05-10T14:27:35.907Z,54.90
2019-05-10T14:30:07.175Z,55.70
2019-05-10T14:32:37.785Z,57.00
2019-05-10T14:35:09.710Z,57.10
2019-05-10T14:37:40.650Z,59.20
2019-05-10T14:40:16.660Z,57.60
2019-05-10T14:42:44.087Z,58.00
2019-05-10T14:45:16.419Z,57.70
2019-05-10T14:47:49.958Z,55.30
2019-05-10T14:50:25.244Z,56.40
2019-05-10T14:52:51.594Z,57.80
2019-05-10T14:55:22.263Z,57.40
2019-05-10T14:57:52.774Z,57.00
2019-05-10T15:00:23.521Z,57.00
2019-05-10T15:02:56.547Z,57.30
2019-05-10T15:05:26.432Z,55.60
2019-05-10T15:07:56.947Z,56.60
2019-05-10T15:10:27.586Z,55.80
2019-05-10T15:12:58.091Z,56.20
2019-05-10T15:15:31.188Z,56.10
2019-05-10T15:18:02.256Z,56.70
2019-05-10T15:20:35.885Z,58.50
2019-05-10T15:23:06.060Z,57.90
2019-05-10T15:25:36.802Z,57.70
2019-05-10T15:28:07.501Z,58.20
2019-05-10T15:30:39.365Z,57.60
2019-05-10T15:33:10.501Z,58.80
2019-05-10T15:35:45.841Z,59.20
2019-05-10T15:38:13.342Z,59.10
2019-05-10T15:40:44.541Z,58.50
2019-05-10T15:43:18.697Z,58.80
2019-05-10T15:45:52.691Z,59.70
2019-05-10T15:48:20.961Z,60.00
2019-05-10T15:50:51.547Z,59.80
2019-05-10T15:53:25.452Z,60.90
2019-05-10T15:55:59.035Z,60.00
2019-05-10T15:58:30.655Z,60.20
2019-05-10T16:00:59.284Z,60.70
2019-05-10T16:03:29.904Z,60.00
2019-05-10T16:06:01.212Z,60.50
2019-05-10T16:08:32.085Z,61.30
2019-05-10T16:11:02.966Z,62.70
2019-05-10T16:13:34.532Z,63.60
2019-05-10T16:16:05.168Z,63.50
2019-05-10T16:18:39.938Z,64.40
2019-05-10T16:21:09.698Z,64.90
2019-05-10T16:23:41.433Z,64.40
2019-05-10T16:26:17.547Z,64.50
2019-05-10T16:28:45.590Z,62.70
2019-05-10T16:31:16.161Z,63.70
2019-05-10T16:33:48.389Z,63.90
2019-05-10T16:36:23.008Z,60.90
2019-05-10T16:38:51.050Z,63.70
2019-05-10T16:41:21.826Z,63.80
2019-05-10T16:43:57.788Z,63.00
2019-05-10T16:46:24.859Z,63.80
2019-05-10T16:48:55.631Z,62.00
2019-05-10T16:51:26.326Z,62.20
2019-05-10T16:53:58.271Z,60.50
2019-05-10T16:56:29.067Z,60.10
2019-05-10T16:58:59.762Z,60.50
2019-05-10T17:01:33.401Z,61.40
2019-05-10T17:04:02.523Z,61.70
2019-05-10T17:06:40.379Z,61.40
2019-05-10T17:09:16.044Z,62.70
2019-05-10T17:11:41.417Z,62.30
2019-05-10T17:14:17.884Z,62.90
2019-05-10T17:16:50.101Z,62.70
2019-05-10T17:19:17.438Z,62.90
2019-05-10T17:21:48.188Z,63.70
2019-05-10T17:24:23.762Z,65.00
2019-05-10T17:26:51.010Z,65.00
2019-05-10T17:29:21.778Z,65.00
2019-05-10T17:31:52.462Z,65.70
2019-05-10T17:34:29.348Z,66.20
2019-05-10T17:36:57.831Z,65.50
2019-05-10T17:39:32.394Z,66.20
2019-05-10T17:42:03.139Z,66.00
2019-05-10T17:44:34.142Z,66.40
2019-05-10T17:47:04.783Z,66.70
2019-05-10T17:49:35.426Z,68.50
2019-05-10T17:52:06.177Z,67.50
2019-05-10T17:54:39.355Z,67.70
2019-05-10T17:57:10.733Z,68.10
2019-05-10T17:59:41.451Z,68.50
2019-05-10T18:02:12.024Z,68.40
2019-05-10T18:04:43.756Z,68.70
2019-05-10T18:07:14.614Z,69.40
2019-05-10T18:09:45.268Z,69.50
2019-05-10T18:12:20.357Z,69.00
2019-05-10T18:14:50.163Z,69.20
2019-05-10T18:17:20.825Z,69.40
2019-05-10T18:19:56.716Z,69.80
2019-05-10T18:22:25.065Z,70.30
2019-05-10T18:24:55.635Z,70.80
2019-05-10T18:27:26.483Z,71.00
2019-05-10T18:29:57.120Z,72.50
2019-05-10T18:32:29.426Z,72.10
2019-05-10T18:34:59.942Z,72.90
2019-05-10T18:37:30.449Z,72.30
2019-05-10T18:40:01.394Z,72.10
2019-05-10T18:42:33.133Z,72.00
2019-05-10T18:45:05.069Z,71.90
2019-05-10T18:47:35.681Z,73.30
2019-05-10T18:50:07.022Z,74.00
2019-05-10T18:52:38.010Z,74.60
2019-05-10T18:55:08.803Z,75.20
2019-05-10T18:57:39.430Z,75.00
2019-05-10T19:00:10.613Z,75.70
2019-05-10T19:02:41.115Z,75.80
2019-05-10T19:05:13.512Z,75.90
2019-05-10T19:07:44.365Z,74.70
2019-05-10T19:10:15.090Z,74.40
2019-05-10T19:12:46.082Z,74.40
2019-05-10T19:15:16.825Z,74.50
2019-05-10T19:17:47.814Z,74.60
2019-05-10T19:20:18.619Z,75.40
2019-05-10T19:22:49.515Z,76.60
2019-05-10T19:25:20.533Z,77.60
2019-05-10T19:27:51.553Z,77.70
2019-05-10T19:30:23.274Z,78.50
2019-05-10T19:32:56.474Z,79.00
2019-05-10T19:35:29.818Z,79.80
2019-05-10T19:37:58.673Z,80.20
2019-05-10T19:40:29.560Z,81.30
2019-05-10T19:43:00.214Z,80.90
2019-05-10T19:45:31.959Z,80.70
2019-05-10T19:48:05.733Z,81.10
2019-05-10T19:50:34.724Z,80.50
2019-05-10T19:53:05.615Z,81.00
2019-05-10T19:55:36.633Z,80.00
2019-05-10T19:58:07.163Z,80.60
2019-05-10T20:00:37.907Z,81.70
2019-05-10T20:03:08.844Z,82.10
2019-05-10T20:05:39.546Z,82.90
2019-05-10T20:08:10.118Z,83.40
2019-05-10T20:10:40.742Z,83.80
2019-05-10T20:13:11.399Z,83.50
2019-05-10T20:15:42.153Z,83.30
2019-05-10T20:18:12.673Z,83.50
2019-05-10T20:20:43.587Z,83.50
2019-05-10T20:23:14.494Z,84.20
2019-05-10T20:25:45.191Z,83.60
2019-05-10T20:28:15.851Z,83.20
2019-05-10T20:30:46.563Z,83.90
2019-05-10T20:33:17.142Z,83.40
2019-05-10T20:35:49.193Z,83.60
2019-05-10T20:38:19.697Z,83.70
2019-05-10T20:40:50.299Z,83.80
2019-05-10T20:43:20.941Z,83.90
2019-05-10T20:45:51.464Z,82.70
2019-05-10T20:48:22.144Z,83.40
2019-05-10T20:50:53.026Z,83.20
2019-05-10T20:53:23.602Z,84.10
2019-05-10T20:55:54.231Z,84.00
2019-05-10T20:58:24.862Z,83.80
2019-05-10T21:00:55.445Z,84.10
2019-05-10T21:03:26.082Z,84.00
2019-05-10T21:05:56.603Z,83.50
2019-05-10T21:08:27.466Z,83.40
2019-05-10T21:10:58.085Z,84.30
2019-05-10T21:13:28.774Z,85.30
2019-05-10T21:15:59.471Z,84.80
2019-05-10T21:18:30.038Z,83.60
2019-05-10T21:21:00.559Z,83.20
2019-05-10T21:23:31.474Z,84.30
2019-05-10T21:26:02.105Z,83.80
2019-05-10T21:28:32.590Z,84.30
2019-05-10T21:31:03.556Z,85.10
2019-05-10T21:33:34.531Z,84.50
2019-05-10T21:36:05.275Z,84.50
2019-05-10T21:38:35.928Z,84.80
2019-05-10T21:41:06.590Z,85.30
2019-05-10T21:43:37.301Z,85.10
2019-05-10T21:46:08.231Z,85.80
2019-05-10T21:48:39.317Z,86.10
2019-05-10T21:51:09.897Z,85.10
2019-05-10T21:53:40.579Z,84.30
2019-05-10T21:56:11.555Z,85.10
2019-05-10T21:58:42.075Z,84.90
2019-05-10T22:01:13.039Z,84.60
2019-05-10T22:03:44.490Z,85.20
2019-05-10T22:06:15.139Z,85.70
2019-05-10T22:08:49.559Z,85.40
2019-05-10T22:11:18.504Z,85.80
2019-05-10T22:13:49.182Z,85.60
2019-05-10T22:16:21.284Z,85.60
2019-05-10T22:19:04.196Z,85.50
2019-05-10T22:21:34.950Z,85.40
2019-05-10T22:24:05.564Z,85.30
2019-05-10T22:26:37.555Z,85.10
2019-05-10T22:29:08.118Z,85.10
2019-05-10T22:31:38.730Z,85.30
2019-05-10T22:34:09.422Z,86.50
2019-05-10T22:36:39.955Z,86.40
2019-05-10T22:39:10.513Z,87.30
2019-05-10T22:41:41.433Z,87.10
2019-05-10T22:44:12.355Z,86.90
2019-05-10T22:46:43.099Z,87.10
2019-05-10T22:49:14.034Z,87.00
2019-05-10T22:51:44.565Z,87.50
2019-05-10T22:54:15.361Z,85.20
2019-05-10T22:56:46.038Z,81.90
2019-05-10T22:59:16.727Z,81.70
2019-05-10T23:01:47.401Z,81.90
2019-05-10T23:04:18.029Z,80.60
2019-05-10T23:06:49.006Z,80.20
2019-05-10T23:09:24.797Z,80.00
2019-05-10T23:11:51.917Z,80.10
2019-05-10T23:14:22.850Z,79.80
2019-05-10T23:16:53.790Z,79.30
2019-05-10T23:19:24.475Z,79.50
2019-05-10T23:21:55.246Z,79.30
2019-05-10T23:24:39.311Z,79.50
2019-05-10T23:27:12.957Z,79.30
2019-05-10T23:29:43.936Z,78.60
2019-05-10T23:32:15.933Z,79.90
2019-05-10T23:34:46.534Z,82.00
2019-05-10T23:37:17.237Z,82.80
2019-05-10T23:39:48.234Z,82.60
2019-05-10T23:42:18.835Z,82.90
2019-05-10T23:44:49.809Z,83.50
2019-05-10T23:47:20.589Z,83.80
2019-05-10T23:49:51.549Z,85.90
2019-05-10T23:52:22.366Z,86.40
2019-05-10T23:54:53.057Z,85.70
2019-05-10T23:57:23.724Z,86.20
2019-05-10T23:59:54.640Z,86.10
